sensor_id;sensor_type;location;lat;lon;timestamp;pressure;altitude;pressure_sealevel;temperature;humidity
56241;BME280;42155;53.096;23.226;2022-10-17T00:01:20;100754.69;;;14.37;77.93
56241;BME280;42155;53.096;23.226;2022-10-17T00:03:20;100750.00;;;14.30;77.85
56241;BME280;42155;53.096;23.226;2022-10-17T00:07:58;100742.59;;;14.01;77.96
56241;BME280;42155;53.096;23.226;2022-10-17T00:09:59;100766.09;;;14.07;78.77
56241;BME280;42155;53.096;23.226;2022-10-17T00:11:59;100761.75;;;14.06;78.66
56241;BME280;42155;53.096;23.226;2022-10-17T00:13:59;100765.63;;;14.02;78.89
56241;BME280;42155;53.096;23.226;2022-10-17T00:16:00;100762.22;;;14.00;79.02
56241;BME280;42155;53.096;23.226;2022-10-17T00:18:01;100767.56;;;14.00;78.79
56241;BME280;42155;53.096;23.226;2022-10-17T00:20:02;100769.41;;;13.99;78.84
56241;BME280;42155;53.096;23.226;2022-10-17T00:22:02;100771.22;;;13.99;78.98
56241;BME280;42155;53.096;23.226;2022-10-17T00:24:03;100747.72;;;13.82;79.18
56241;BME280;42155;53.096;23.226;2022-10-17T00:26:04;100763.59;;;13.94;78.97
56241;BME280;42155;53.096;23.226;2022-10-17T00:28:07;100763.72;;;13.93;79.16
56241;BME280;42155;53.096;23.226;2022-10-17T00:30:11;100768.31;;;13.91;79.05
56241;BME280;42155;53.096;23.226;2022-10-17T00:32:12;100766.63;;;13.90;79.40
56241;BME280;42155;53.096;23.226;2022-10-17T00:34:12;100761.44;;;13.88;79.60
56241;BME280;42155;53.096;23.226;2022-10-17T00:36:15;100762.03;;;13.81;79.84
56241;BME280;42155;53.096;23.226;2022-10-17T00:38:16;100765.94;;;13.76;79.44
56241;BME280;42155;53.096;23.226;2022-10-17T00:40:16;100757.84;;;13.56;79.66
56241;BME280;42155;53.096;23.226;2022-10-17T00:42:17;100762.34;;;13.55;80.14
56241;BME280;42155;53.096;23.226;2022-10-17T00:46:32;100786.09;;;13.47;80.33
56241;BME280;42155;53.096;23.226;2022-10-17T00:48:32;100739.56;;;13.17;79.82
56241;BME280;42155;53.096;23.226;2022-10-17T00:50:34;100793.84;;;13.39;80.04
56241;BME280;42155;53.096;23.226;2022-10-17T00:52:36;100765.47;;;13.15;80.28
56241;BME280;42155;53.096;23.226;2022-10-17T00:54:39;100797.25;;;13.30;80.15
56241;BME280;42155;53.096;23.226;2022-10-17T00:56:41;100802.09;;;13.24;80.16
56241;BME280;42155;53.096;23.226;2022-10-17T00:58:42;100803.63;;;13.16;80.11
56241;BME280;42155;53.096;23.226;2022-10-17T01:00:43;100805.06;;;13.09;80.17
56241;BME280;42155;53.096;23.226;2022-10-17T01:02:45;100808.09;;;13.04;79.82
56241;BME280;42155;53.096;23.226;2022-10-17T01:04:49;100805.66;;;13.01;79.85
56241;BME280;42155;53.096;23.226;2022-10-17T01:06:49;100807.84;;;12.96;79.51
56241;BME280;42155;53.096;23.226;2022-10-17T01:08:50;100802.09;;;12.89;79.32
56241;BME280;42155;53.096;23.226;2022-10-17T01:10:55;100807.06;;;12.83;79.65
56241;BME280;42155;53.096;23.226;2022-10-17T01:13:21;100803.91;;;12.78;78.99
56241;BME280;42155;53.096;23.226;2022-10-17T01:22:32;100808.94;;;12.58;78.53
56241;BME280;42155;53.096;23.226;2022-10-17T01:24:59;100805.16;;;12.49;78.50
56241;BME280;42155;53.096;23.226;2022-10-17T01:31:25;100807.16;;;12.35;78.34
56241;BME280;42155;53.096;23.226;2022-10-17T01:33:47;100817.16;;;12.31;78.85
56241;BME280;42155;53.096;23.226;2022-10-17T01:35:57;100803.78;;;12.20;79.02
56241;BME280;42155;53.096;23.226;2022-10-17T01:38:48;100745.63;;;11.79;79.04
56241;BME280;42155;53.096;23.226;2022-10-17T01:40:35;100813.59;;;12.19;78.79
56241;BME280;42155;53.096;23.226;2022-10-17T01:42:46;100813.72;;;12.18;78.98
56241;BME280;42155;53.096;23.226;2022-10-17T01:47:06;100824.81;;;12.12;79.32
56241;BME280;42155;53.096;23.226;2022-10-17T01:49:08;100818.09;;;12.06;78.59
56241;BME280;42155;53.096;23.226;2022-10-17T01:51:40;100825.16;;;12.07;78.65
56241;BME280;42155;53.096;23.226;2022-10-17T01:53:48;100828.03;;;12.04;79.04
56241;BME280;42155;53.096;23.226;2022-10-17T01:55:51;100816.75;;;12.01;78.80
56241;BME280;42155;53.096;23.226;2022-10-17T01:58:04;100753.34;;;11.58;79.10
56241;BME280;42155;53.096;23.226;2022-10-17T02:00:11;100818.78;;;11.97;78.52
56241;BME280;42155;53.096;23.226;2022-10-17T02:02:13;100817.31;;;11.93;78.72
56241;BME280;42155;53.096;23.226;2022-10-17T02:04:14;100807.88;;;11.89;78.99
56241;BME280;42155;53.096;23.226;2022-10-17T02:06:14;100813.41;;;11.86;78.64
56241;BME280;42155;53.096;23.226;2022-10-17T02:10:56;100803.50;;;11.75;78.73
56241;BME280;42155;53.096;23.226;2022-10-17T02:15:36;100817.97;;;11.71;78.34
56241;BME280;42155;53.096;23.226;2022-10-17T02:20:30;100825.25;;;11.56;78.36
56241;BME280;42155;53.096;23.226;2022-10-17T02:22:43;100816.31;;;11.57;77.96
56241;BME280;42155;53.096;23.226;2022-10-17T02:25:05;100816.50;;;11.54;78.21
56241;BME280;42155;53.096;23.226;2022-10-17T02:27:16;100823.75;;;11.52;78.24
56241;BME280;42155;53.096;23.226;2022-10-17T02:29:30;100805.47;;;11.35;77.71
56241;BME280;42155;53.096;23.226;2022-10-17T02:31:56;100829.47;;;11.46;77.55
56241;BME280;42155;53.096;23.226;2022-10-17T02:34:01;100809.94;;;11.34;77.93
56241;BME280;42155;53.096;23.226;2022-10-17T02:36:10;100827.91;;;11.43;77.77
56241;BME280;42155;53.096;23.226;2022-10-17T02:38:12;100785.06;;;11.22;77.95
56241;BME280;42155;53.096;23.226;2022-10-17T02:40:15;100819.28;;;11.40;77.81
56241;BME280;42155;53.096;23.226;2022-10-17T02:42:16;100819.28;;;11.40;77.85
56241;BME280;42155;53.096;23.226;2022-10-17T02:44:18;100832.69;;;11.38;77.54
56241;BME280;42155;53.096;23.226;2022-10-17T02:46:22;100836.09;;;11.40;78.10
56241;BME280;42155;53.096;23.226;2022-10-17T02:51:14;100839.91;;;11.36;78.24
56241;BME280;42155;53.096;23.226;2022-10-17T02:53:26;100835.69;;;11.34;77.91
56241;BME280;42155;53.096;23.226;2022-10-17T02:55:32;100845.47;;;11.33;78.29
56241;BME280;42155;53.096;23.226;2022-10-17T02:57:53;100819.09;;;11.17;77.77
56241;BME280;42155;53.096;23.226;2022-10-17T02:59:56;100843.00;;;11.30;77.62
56241;BME280;42155;53.096;23.226;2022-10-17T03:01:57;100790.41;;;10.97;77.57
56241;BME280;42155;53.096;23.226;2022-10-17T03:04:09;100832.50;;;11.29;77.88
56241;BME280;42155;53.096;23.226;2022-10-17T03:06:10;100814.84;;;11.15;77.69
56241;BME280;42155;53.096;23.226;2022-10-17T03:08:10;100816.75;;;11.13;78.26
56241;BME280;42155;53.096;23.226;2022-10-17T03:10:10;100844.81;;;11.30;77.69
56241;BME280;42155;53.096;23.226;2022-10-17T03:12:11;100844.63;;;11.33;78.53
56241;BME280;42155;53.096;23.226;2022-10-17T03:14:11;100841.06;;;11.32;78.92
56241;BME280;42155;53.096;23.226;2022-10-17T03:16:11;100782.75;;;11.05;79.08
56241;BME280;42155;53.096;23.226;2022-10-17T03:18:12;100797.84;;;11.17;79.19
56241;BME280;42155;53.096;23.226;2022-10-17T03:20:12;100847.16;;;11.47;79.16
56241;BME280;42155;53.096;23.226;2022-10-17T03:24:29;100857.66;;;11.48;79.59
56241;BME280;42155;53.096;23.226;2022-10-17T03:26:30;100868.31;;;11.48;79.15
56241;BME280;42155;53.096;23.226;2022-10-17T03:28:30;100875.44;;;11.48;79.15
56241;BME280;42155;53.096;23.226;2022-10-17T03:30:31;100876.59;;;11.44;79.22
56241;BME280;42155;53.096;23.226;2022-10-17T03:32:32;100872.25;;;11.43;79.07
56241;BME280;42155;53.096;23.226;2022-10-17T03:34:33;100863.50;;;11.41;79.38
56241;BME280;42155;53.096;23.226;2022-10-17T03:36:33;100870.31;;;11.45;79.48
56241;BME280;42155;53.096;23.226;2022-10-17T03:38:34;100871.16;;;11.45;79.25
56241;BME280;42155;53.096;23.226;2022-10-17T03:40:34;100874.78;;;11.44;79.32
56241;BME280;42155;53.096;23.226;2022-10-17T03:42:35;100886.28;;;11.45;79.23
56241;BME280;42155;53.096;23.226;2022-10-17T03:44:35;100897.00;;;11.43;78.80
56241;BME280;42155;53.096;23.226;2022-10-17T03:46:35;100896.06;;;11.44;79.16
56241;BME280;42155;53.096;23.226;2022-10-17T03:48:36;100903.81;;;11.47;79.18
56241;BME280;42155;53.096;23.226;2022-10-17T03:50:36;100900.31;;;11.47;79.15
56241;BME280;42155;53.096;23.226;2022-10-17T03:52:36;100902.00;;;11.48;79.11
56241;BME280;42155;53.096;23.226;2022-10-17T03:54:39;100904.78;;;11.46;79.55
56241;BME280;42155;53.096;23.226;2022-10-17T03:56:40;100903.50;;;11.52;79.28
56241;BME280;42155;53.096;23.226;2022-10-17T03:58:41;100910.09;;;11.59;79.21
56241;BME280;42155;53.096;23.226;2022-10-17T04:00:41;100910.72;;;11.63;79.82
56241;BME280;42155;53.096;23.226;2022-10-17T04:02:41;100914.16;;;11.65;79.77
56241;BME280;42155;53.096;23.226;2022-10-17T04:04:42;100922.53;;;11.71;80.36
56241;BME280;42155;53.096;23.226;2022-10-17T04:06:42;100917.75;;;11.77;80.91
56241;BME280;42155;53.096;23.226;2022-10-17T04:08:42;100902.88;;;11.74;80.87
56241;BME280;42155;53.096;23.226;2022-10-17T04:10:43;100918.94;;;11.85;80.81
56241;BME280;42155;53.096;23.226;2022-10-17T04:12:43;100920.53;;;11.88;80.77
56241;BME280;42155;53.096;23.226;2022-10-17T04:14:43;100926.47;;;11.91;80.84
56241;BME280;42155;53.096;23.226;2022-10-17T04:16:44;100925.41;;;11.94;80.37
56241;BME280;42155;53.096;23.226;2022-10-17T04:18:44;100924.25;;;11.98;80.76
56241;BME280;42155;53.096;23.226;2022-10-17T04:20:44;100921.25;;;12.03;81.21
56241;BME280;42155;53.096;23.226;2022-10-17T04:22:45;100914.13;;;12.03;81.22
56241;BME280;42155;53.096;23.226;2022-10-17T04:24:45;100931.34;;;12.10;80.77
56241;BME280;42155;53.096;23.226;2022-10-17T04:26:48;100936.25;;;12.16;81.43
56241;BME280;42155;53.096;23.226;2022-10-17T04:28:49;100917.09;;;12.11;81.05
56241;BME280;42155;53.096;23.226;2022-10-17T04:31:03;100934.31;;;12.18;81.01
56241;BME280;42155;53.096;23.226;2022-10-17T04:33:03;100939.63;;;12.18;81.23
56241;BME280;42155;53.096;23.226;2022-10-17T04:35:04;100947.72;;;12.17;81.02
56241;BME280;42155;53.096;23.226;2022-10-17T04:37:04;100950.47;;;12.15;81.18
56241;BME280;42155;53.096;23.226;2022-10-17T04:39:05;100946.06;;;12.03;80.76
56241;BME280;42155;53.096;23.226;2022-10-17T04:41:08;100957.41;;;12.05;81.31
56241;BME280;42155;53.096;23.226;2022-10-17T04:43:09;100965.19;;;12.08;81.15
56241;BME280;42155;53.096;23.226;2022-10-17T04:45:10;100963.25;;;12.10;81.63
56241;BME280;42155;53.096;23.226;2022-10-17T04:47:10;100965.00;;;12.11;81.28
56241;BME280;42155;53.096;23.226;2022-10-17T04:49:10;100965.00;;;12.11;81.78
56241;BME280;42155;53.096;23.226;2022-10-17T04:51:16;100973.81;;;12.12;81.50
56241;BME280;42155;53.096;23.226;2022-10-17T04:53:17;100975.63;;;12.11;81.31
56241;BME280;42155;53.096;23.226;2022-10-17T04:55:17;100982.66;;;12.12;81.42
56241;BME280;42155;53.096;23.226;2022-10-17T04:57:18;100974.66;;;12.12;81.67
56241;BME280;42155;53.096;23.226;2022-10-17T04:59:18;100981.47;;;12.16;81.70
56241;BME280;42155;53.096;23.226;2022-10-17T05:01:20;100974.56;;;12.14;81.43
56241;BME280;42155;53.096;23.226;2022-10-17T05:03:20;100944.78;;;11.96;81.16
56241;BME280;42155;53.096;23.226;2022-10-17T05:05:21;100965.00;;;12.11;80.84
56241;BME280;42155;53.096;23.226;2022-10-17T05:07:21;100972.84;;;12.13;80.82
56241;BME280;42155;53.096;23.226;2022-10-17T05:09:21;100963.59;;;12.06;81.27
56241;BME280;42155;53.096;23.226;2022-10-17T05:11:24;100972.22;;;12.09;81.00
56241;BME280;42155;53.096;23.226;2022-10-17T05:13:24;100980.53;;;12.05;81.21
56241;BME280;42155;53.096;23.226;2022-10-17T05:15:25;100980.63;;;12.03;80.80
56241;BME280;42155;53.096;23.226;2022-10-17T05:17:25;100968.94;;;11.93;80.76
56241;BME280;42155;53.096;23.226;2022-10-17T05:19:25;100977.13;;;12.03;81.14
56241;BME280;42155;53.096;23.226;2022-10-17T05:21:27;100976.28;;;12.02;81.10
56241;BME280;42155;53.096;23.226;2022-10-17T05:23:28;100972.00;;;12.00;81.38
56241;BME280;42155;53.096;23.226;2022-10-17T05:25:29;100984.47;;;12.12;81.38
56241;BME280;42155;53.096;23.226;2022-10-17T05:27:29;100952.53;;;11.99;81.14
56241;BME280;42155;53.096;23.226;2022-10-17T05:29:29;100967.84;;;12.08;80.95
56241;BME280;42155;53.096;23.226;2022-10-17T05:31:30;100987.09;;;12.24;81.48
56241;BME280;42155;53.096;23.226;2022-10-17T05:33:31;100992.19;;;12.28;81.33
56241;BME280;42155;53.096;23.226;2022-10-17T05:35:31;100993.69;;;12.32;81.40
56241;BME280;42155;53.096;23.226;2022-10-17T05:37:31;101007.50;;;12.37;81.42
56241;BME280;42155;53.096;23.226;2022-10-17T05:39:32;100998.47;;;12.39;81.67
56241;BME280;42155;53.096;23.226;2022-10-17T05:41:32;101005.34;;;12.55;81.77
56241;BME280;42155;53.096;23.226;2022-10-17T05:43:33;101004.06;;;12.60;81.99
56241;BME280;42155;53.096;23.226;2022-10-17T05:45:34;101007.47;;;12.62;82.12
56241;BME280;42155;53.096;23.226;2022-10-17T05:47:35;101003.63;;;12.66;82.29
56241;BME280;42155;53.096;23.226;2022-10-17T05:49:35;101013.81;;;12.72;82.55
56241;BME280;42155;53.096;23.226;2022-10-17T05:51:35;101011.16;;;12.72;82.10
56241;BME280;42155;53.096;23.226;2022-10-17T05:53:38;101026.81;;;12.77;82.61
56241;BME280;42155;53.096;23.226;2022-10-17T05:55:39;101024.34;;;12.74;82.62
56241;BME280;42155;53.096;23.226;2022-10-17T05:57:39;100984.91;;;12.55;82.78
56241;BME280;42155;53.096;23.226;2022-10-17T05:59:40;101027.00;;;12.87;83.01
56241;BME280;42155;53.096;23.226;2022-10-17T06:01:40;101028.22;;;12.94;82.55
56241;BME280;42155;53.096;23.226;2022-10-17T06:03:40;101031.44;;;12.99;82.65
56241;BME280;42155;53.096;23.226;2022-10-17T06:05:41;101034.59;;;13.04;82.63
56241;BME280;42155;53.096;23.226;2022-10-17T06:07:41;101001.59;;;12.94;82.85
56241;BME280;42155;53.096;23.226;2022-10-17T06:09:42;101033.69;;;13.16;82.59
56241;BME280;42155;53.096;23.226;2022-10-17T06:11:42;101045.63;;;13.23;83.01
56241;BME280;42155;53.096;23.226;2022-10-17T06:13:42;101039.84;;;13.30;83.11
56241;BME280;42155;53.096;23.226;2022-10-17T06:15:43;101021.66;;;13.23;82.74
56241;BME280;42155;53.096;23.226;2022-10-17T06:17:43;101043.63;;;13.38;82.92
56241;BME280;42155;53.096;23.226;2022-10-17T06:19:44;101048.63;;;13.43;83.19
56241;BME280;42155;53.096;23.226;2022-10-17T06:21:44;101046.59;;;13.46;83.01
56241;BME280;42155;53.096;23.226;2022-10-17T06:23:44;101048.28;;;13.47;82.98
56241;BME280;42155;53.096;23.226;2022-10-17T06:25:45;101053.03;;;13.55;83.04
56241;BME280;42155;53.096;23.226;2022-10-17T06:27:45;101035.06;;;13.46;83.15
56241;BME280;42155;53.096;23.226;2022-10-17T06:29:46;101064.31;;;13.59;83.29
56241;BME280;42155;53.096;23.226;2022-10-17T06:31:47;101040.16;;;13.49;83.17
56241;BME280;42155;53.096;23.226;2022-10-17T06:33:47;101071.38;;;13.60;83.20
56241;BME280;42155;53.096;23.226;2022-10-17T06:35:54;101069.75;;;13.57;83.49
56241;BME280;42155;53.096;23.226;2022-10-17T06:37:55;101076.69;;;13.60;83.49
56241;BME280;42155;53.096;23.226;2022-10-17T06:39:55;101069.53;;;13.60;83.91
56241;BME280;42155;53.096;23.226;2022-10-17T06:41:56;101074.88;;;13.60;83.79
56241;BME280;42155;53.096;23.226;2022-10-17T06:43:56;101064.50;;;13.44;84.02
56241;BME280;42155;53.096;23.226;2022-10-17T06:45:56;101089.41;;;13.56;84.23
56241;BME280;42155;53.096;23.226;2022-10-17T06:47:57;101070.22;;;13.51;84.27
56241;BME280;42155;53.096;23.226;2022-10-17T06:49:57;101086.53;;;13.70;83.88
56241;BME280;42155;53.096;23.226;2022-10-17T06:51:57;101086.81;;;13.79;83.70
56241;BME280;42155;53.096;23.226;2022-10-17T06:53:58;101086.22;;;13.86;83.96
56241;BME280;42155;53.096;23.226;2022-10-17T06:55:58;101080.28;;;13.83;83.51
56241;BME280;42155;53.096;23.226;2022-10-17T06:57:58;101097.28;;;13.93;83.57
56241;BME280;42155;53.096;23.226;2022-10-17T06:59:59;101098.75;;;13.97;83.78
56241;BME280;42155;53.096;23.226;2022-10-17T07:02:00;101089.06;;;13.96;83.62
56241;BME280;42155;53.096;23.226;2022-10-17T07:04:00;101107.63;;;14.09;83.29
56241;BME280;42155;53.096;23.226;2022-10-17T07:06:01;101111.69;;;14.14;83.27
56241;BME280;42155;53.096;23.226;2022-10-17T07:08:04;101092.22;;;14.01;83.13
56241;BME280;42155;53.096;23.226;2022-10-17T07:10:04;101116.53;;;14.20;83.06
56241;BME280;42155;53.096;23.226;2022-10-17T07:12:05;101115.19;;;14.26;83.05
56241;BME280;42155;53.096;23.226;2022-10-17T07:14:05;101118.59;;;14.28;83.08
56241;BME280;42155;53.096;23.226;2022-10-17T07:16:06;101127.69;;;14.25;82.92
56241;BME280;42155;53.096;23.226;2022-10-17T07:18:06;101114.84;;;14.19;83.11
56241;BME280;42155;53.096;23.226;2022-10-17T07:20:07;101127.34;;;14.30;83.32
56241;BME280;42155;53.096;23.226;2022-10-17T07:22:08;101130.38;;;14.37;83.15
56241;BME280;42155;53.096;23.226;2022-10-17T07:24:09;101118.00;;;14.36;82.66
56241;BME280;42155;53.096;23.226;2022-10-17T07:26:11;101134.44;;;14.54;82.83
56241;BME280;42155;53.096;23.226;2022-10-17T07:28:13;101110.75;;;14.38;82.68
56241;BME280;42155;53.096;23.226;2022-10-17T07:30:14;101139.41;;;14.47;82.76
56241;BME280;42155;53.096;23.226;2022-10-17T07:32:14;101144.75;;;14.47;82.76
56241;BME280;42155;53.096;23.226;2022-10-17T07:34:15;101138.78;;;14.43;82.63
56241;BME280;42155;53.096;23.226;2022-10-17T07:36:15;101143.38;;;14.41;82.93
56241;BME280;42155;53.096;23.226;2022-10-17T07:38:16;101144.94;;;14.33;83.18
56241;BME280;42155;53.096;23.226;2022-10-17T07:40:16;101135.00;;;14.35;82.85
56241;BME280;42155;53.096;23.226;2022-10-17T07:42:17;101163.97;;;14.52;82.86
56241;BME280;42155;53.096;23.226;2022-10-17T07:44:17;101163.69;;;14.55;82.48
56241;BME280;42155;53.096;23.226;2022-10-17T07:46:18;101162.50;;;14.59;82.43
56241;BME280;42155;53.096;23.226;2022-10-17T07:48:19;101162.25;;;14.62;82.19
56241;BME280;42155;53.096;23.226;2022-10-17T07:50:20;101164.44;;;14.68;82.29
56241;BME280;42155;53.096;23.226;2022-10-17T07:52:20;101166.75;;;14.73;82.32
56241;BME280;42155;53.096;23.226;2022-10-17T07:54:21;101168.09;;;14.78;82.19
56241;BME280;42155;53.096;23.226;2022-10-17T07:56:21;101162.28;;;14.85;81.78
56241;BME280;42155;53.096;23.226;2022-10-17T07:58:22;101164.47;;;14.91;81.97
56241;BME280;42155;53.096;23.226;2022-10-17T08:00:22;101163.09;;;14.96;81.46
56241;BME280;42155;53.096;23.226;2022-10-17T08:02:24;101165.41;;;15.01;81.52
56241;BME280;42155;53.096;23.226;2022-10-17T08:04:25;101165.19;;;15.04;81.38
56241;BME280;42155;53.096;23.226;2022-10-17T08:06:26;101167.72;;;15.06;81.45
56241;BME280;42155;53.096;23.226;2022-10-17T08:08:26;101171.72;;;15.11;81.23
56241;BME280;42155;53.096;23.226;2022-10-17T08:10:27;101178.53;;;15.15;81.15
56241;BME280;42155;53.096;23.226;2022-10-17T08:12:27;101159.09;;;15.13;81.21
56241;BME280;42155;53.096;23.226;2022-10-17T08:14:28;101158.88;;;15.16;81.03
56241;BME280;42155;53.096;23.226;2022-10-17T08:16:28;101163.34;;;15.16;80.95
56241;BME280;42155;53.096;23.226;2022-10-17T08:18:28;101169.78;;;15.13;80.94
56241;BME280;42155;53.096;23.226;2022-10-17T08:20:29;101167.84;;;15.04;81.22
56241;BME280;42155;53.096;23.226;2022-10-17T08:22:29;101160.06;;;15.01;81.23
56241;BME280;42155;53.096;23.226;2022-10-17T08:24:30;101144.88;;;15.01;81.30
56241;BME280;42155;53.096;23.226;2022-10-17T08:26:30;101159.81;;;15.15;81.21
56241;BME280;42155;53.096;23.226;2022-10-17T08:28:34;101159.72;;;15.17;80.97
56241;BME280;42155;53.096;23.226;2022-10-17T08:30:34;101165.91;;;15.17;81.11
56241;BME280;42155;53.096;23.226;2022-10-17T08:32:34;101175.13;;;15.13;81.07
56241;BME280;42155;53.096;23.226;2022-10-17T08:34:35;101174.78;;;15.18;81.14
56241;BME280;42155;53.096;23.226;2022-10-17T08:36:35;101169.06;;;15.22;80.94
56241;BME280;42155;53.096;23.226;2022-10-17T08:38:35;101167.94;;;15.25;81.18
56241;BME280;42155;53.096;23.226;2022-10-17T08:40:36;101178.63;;;15.36;80.83
56241;BME280;42155;53.096;23.226;2022-10-17T08:46:54;101170.66;;;15.57;80.13
56241;BME280;42155;53.096;23.226;2022-10-17T08:48:57;101179.94;;;15.64;79.82
56241;BME280;42155;53.096;23.226;2022-10-17T08:51:21;101187.13;;;15.64;79.98
56241;BME280;42155;53.096;23.226;2022-10-17T08:53:47;101191.34;;;15.55;80.13
56241;BME280;42155;53.096;23.226;2022-10-17T08:55:51;101188.81;;;15.53;80.50
56241;BME280;42155;53.096;23.226;2022-10-17T08:57:52;101173.34;;;15.57;80.30
56241;BME280;42155;53.096;23.226;2022-10-17T08:59:53;101179.94;;;15.64;79.91
56241;BME280;42155;53.096;23.226;2022-10-17T09:02:02;101174.06;;;15.70;79.79
56241;BME280;42155;53.096;23.226;2022-10-17T09:06:27;101175.00;;;15.81;79.84
56241;BME280;42155;53.096;23.226;2022-10-17T09:08:46;101179.84;;;15.87;79.89
56241;BME280;42155;53.096;23.226;2022-10-17T09:10:59;101165.34;;;15.89;79.37
56241;BME280;42155;53.096;23.226;2022-10-17T09:13:35;101171.13;;;16.06;79.10
56241;BME280;42155;53.096;23.226;2022-10-17T09:18:30;101175.31;;;16.19;78.92
56241;BME280;42155;53.096;23.226;2022-10-17T09:20:48;101170.03;;;16.29;78.80
56241;BME280;42155;53.096;23.226;2022-10-17T09:24:55;101164.03;;;16.37;78.64
56241;BME280;42155;53.096;23.226;2022-10-17T09:26:56;101168.41;;;16.38;78.59
56241;BME280;42155;53.096;23.226;2022-10-17T09:28:58;101170.09;;;16.39;78.52
56241;BME280;42155;53.096;23.226;2022-10-17T09:33:25;101166.63;;;16.48;78.43
56241;BME280;42155;53.096;23.226;2022-10-17T09:35:27;101167.31;;;16.50;78.56
56241;BME280;42155;53.096;23.226;2022-10-17T09:37:29;101157.47;;;16.50;78.31
56241;BME280;42155;53.096;23.226;2022-10-17T09:39:30;101173.78;;;16.68;78.16
56241;BME280;42155;53.096;23.226;2022-10-17T09:41:38;101181.06;;;16.77;78.28
56241;BME280;42155;53.096;23.226;2022-10-17T09:43:39;101179.84;;;16.91;78.00
56241;BME280;42155;53.096;23.226;2022-10-17T09:46:09;101182.31;;;17.04;77.42
56241;BME280;42155;53.096;23.226;2022-10-17T09:48:27;101186.56;;;17.07;76.97
56241;BME280;42155;53.096;23.226;2022-10-17T09:50:31;101196.44;;;17.06;77.13
56241;BME280;42155;53.096;23.226;2022-10-17T09:52:35;101190.63;;;17.01;77.19
56241;BME280;42155;53.096;23.226;2022-10-17T09:54:53;101184.00;;;17.05;77.38
56241;BME280;42155;53.096;23.226;2022-10-17T09:56:59;101185.84;;;17.14;77.02
56241;BME280;42155;53.096;23.226;2022-10-17T09:58:59;101183.22;;;17.24;76.88
56241;BME280;42155;53.096;23.226;2022-10-17T10:01:15;101191.16;;;17.35;76.89
56241;BME280;42155;53.096;23.226;2022-10-17T10:03:26;101180.44;;;17.45;76.21
56241;BME280;42155;53.096;23.226;2022-10-17T10:05:26;101179.34;;;17.47;76.03
56241;BME280;42155;53.096;23.226;2022-10-17T10:07:29;101173.09;;;17.47;75.76
56241;BME280;42155;53.096;23.226;2022-10-17T10:09:31;101181.97;;;17.38;76.20
56241;BME280;42155;53.096;23.226;2022-10-17T10:11:47;101182.69;;;17.40;76.26
56241;BME280;42155;53.096;23.226;2022-10-17T10:13:49;101146.22;;;17.27;75.83
56241;BME280;42155;53.096;23.226;2022-10-17T10:15:49;101183.84;;;17.47;76.26
56241;BME280;42155;53.096;23.226;2022-10-17T10:17:50;101177.34;;;17.49;75.99
56241;BME280;42155;53.096;23.226;2022-10-17T10:19:51;101162.66;;;17.44;76.30
56241;BME280;42155;53.096;23.226;2022-10-17T10:22:05;101170.03;;;17.61;75.97
56241;BME280;42155;53.096;23.226;2022-10-17T10:26:21;101165.81;;;18.07;74.94
56241;BME280;42155;53.096;23.226;2022-10-17T10:28:27;101168.38;;;18.18;74.28
56241;BME280;42155;53.096;23.226;2022-10-17T10:30:29;101161.28;;;18.27;74.15
56241;BME280;42155;53.096;23.226;2022-10-17T10:32:35;101158.16;;;18.41;73.93
56241;BME280;42155;53.096;23.226;2022-10-17T10:34:40;101162.91;;;18.57;73.50
56241;BME280;42155;53.096;23.226;2022-10-17T10:36:51;101157.81;;;18.64;72.81
56241;BME280;42155;53.096;23.226;2022-10-17T10:38:55;101167.41;;;18.66;72.14
56241;BME280;42155;53.096;23.226;2022-10-17T10:41:02;101153.44;;;18.53;71.62
56241;BME280;42155;53.096;23.226;2022-10-17T10:43:04;101117.41;;;18.36;71.45
56241;BME280;42155;53.096;23.226;2022-10-17T10:47:22;101158.81;;;18.53;71.20
56241;BME280;42155;53.096;23.226;2022-10-17T10:49:29;101152.19;;;18.47;71.46
56241;BME280;42155;53.096;23.226;2022-10-17T10:51:37;101157.13;;;18.52;71.52
56241;BME280;42155;53.096;23.226;2022-10-17T10:53:50;101147.81;;;18.46;71.33
56241;BME280;42155;53.096;23.226;2022-10-17T10:56:16;101152.75;;;18.51;71.28
56241;BME280;42155;53.096;23.226;2022-10-17T10:58:32;101145.69;;;18.50;70.78
56241;BME280;42155;53.096;23.226;2022-10-17T11:00:36;101142.69;;;18.53;71.28
56241;BME280;42155;53.096;23.226;2022-10-17T11:02:48;101146.72;;;18.67;70.84
56241;BME280;42155;53.096;23.226;2022-10-17T11:04:58;101142.47;;;18.83;70.83
56241;BME280;42155;53.096;23.226;2022-10-17T11:07:07;101148.09;;;18.90;70.05
56241;BME280;42155;53.096;23.226;2022-10-17T11:11:16;101141.28;;;18.96;69.52
56241;BME280;42155;53.096;23.226;2022-10-17T11:13:25;101135.97;;;19.04;69.44
56241;BME280;42155;53.096;23.226;2022-10-17T11:17:59;101105.19;;;19.16;68.92
56241;BME280;42155;53.096;23.226;2022-10-17T11:22:20;101110.91;;;19.49;68.28
56241;BME280;42155;53.096;23.226;2022-10-17T11:24:24;101096.53;;;19.58;68.20
56241;BME280;42155;53.096;23.226;2022-10-17T11:26:29;101112.19;;;19.72;67.75
56241;BME280;42155;53.096;23.226;2022-10-17T11:28:31;101112.81;;;19.66;67.13
56241;BME280;42155;53.096;23.226;2022-10-17T11:32:58;101121.94;;;19.55;67.51
56241;BME280;42155;53.096;23.226;2022-10-17T11:35:14;101103.84;;;19.48;67.71
56241;BME280;42155;53.096;23.226;2022-10-17T11:37:27;101119.25;;;19.55;68.21